createdAt,value
2022-10-05T00:01:54.189Z,10.89
2022-10-05T00:04:24.903Z,10.90
2022-10-05T00:07:01.903Z,10.88
2022-10-05T00:09:32.792Z,10.91
2022-10-05T00:12:00.551Z,10.99
2022-10-05T00:14:31.865Z,10.98
2022-10-05T00:16:59.607Z,11.05
2022-10-05T00:19:33.570Z,11.05
2022-10-05T00:22:03.860Z,11.18
2022-10-05T00:24:32.868Z,11.28
2022-10-05T00:27:01.909Z,11.26
2022-10-05T00:29:29.720Z,11.26
2022-10-05T00:31:57.418Z,11.26
2022-10-05T00:34:25.100Z,11.29
2022-10-05T00:36:52.854Z,11.34
2022-10-05T00:39:20.733Z,11.40
2022-10-05T00:42:06.163Z,11.13
2022-10-05T00:44:42.003Z,11.41
2022-10-05T00:47:27.069Z,11.43
2022-10-05T00:50:08.286Z,11.45
2022-10-05T00:52:46.631Z,11.53
2022-10-05T00:55:22.652Z,11.55
2022-10-05T00:58:05.970Z,11.73
2022-10-05T01:00:38.409Z,11.66
2022-10-05T01:03:15.454Z,11.60
2022-10-05T01:05:58.243Z,11.59
2022-10-05T01:08:38.277Z,11.56
2022-10-05T01:11:14.787Z,11.45
2022-10-05T01:13:52.245Z,11.57
2022-10-05T01:16:27.663Z,11.57
2022-10-05T01:19:02.443Z,11.55
2022-10-05T01:21:34.955Z,11.55
2022-10-05T01:24:32.935Z,11.58
2022-10-05T01:27:26.069Z,11.64
2022-10-05T01:30:00.418Z,11.69
2022-10-05T01:32:36.886Z,11.74
2022-10-05T01:35:16.394Z,11.74
2022-10-05T01:37:59.211Z,11.71
2022-10-05T01:40:34.579Z,11.65
2022-10-05T01:43:10.245Z,11.71
2022-10-05T01:45:50.813Z,11.69
2022-10-05T01:48:24.700Z,11.82
2022-10-05T01:51:04.922Z,11.61
2022-10-05T01:53:44.274Z,11.84
2022-10-05T01:56:21.260Z,11.84
2022-10-05T01:58:59.860Z,11.92
2022-10-05T02:01:34.806Z,11.95
2022-10-05T02:04:06.940Z,11.81
2022-10-05T02:06:40.895Z,11.84
2022-10-05T02:09:15.583Z,11.84
2022-10-05T02:11:48.618Z,11.92
2022-10-05T02:14:21.454Z,11.93
2022-10-05T02:16:54.034Z,11.88
2022-10-05T02:19:24.510Z,11.92
2022-10-05T02:22:00.455Z,11.95
2022-10-05T02:24:32.663Z,12.04
2022-10-05T02:27:00.735Z,12.04
2022-10-05T02:29:32.991Z,12.03
2022-10-05T02:32:07.839Z,12.05
2022-10-05T02:34:39.630Z,12.08
2022-10-05T02:37:17.997Z,12.10
2022-10-05T02:39:58.820Z,12.03
2022-10-05T02:42:34.234Z,12.01
2022-10-05T02:45:11.257Z,11.94
2022-10-05T02:47:47.690Z,11.84
2022-10-05T02:50:27.076Z,12.03
2022-10-05T02:53:07.024Z,12.06
2022-10-05T02:55:39.771Z,12.01
2022-10-05T02:58:15.954Z,11.98
2022-10-05T03:00:48.825Z,11.99
2022-10-05T03:03:25.770Z,11.97
2022-10-05T03:05:59.361Z,12.02
2022-10-05T03:08:34.006Z,11.96
2022-10-05T03:11:12.256Z,11.90
2022-10-05T03:13:47.719Z,11.97
2022-10-05T03:16:36.916Z,11.97
2022-10-05T03:19:22.937Z,11.99
2022-10-05T03:21:59.877Z,11.99
2022-10-05T03:24:57.780Z,11.97
2022-10-05T03:27:36.636Z,11.98
2022-10-05T03:30:09.471Z,12.00
2022-10-05T03:32:49.949Z,12.00
2022-10-05T03:35:28.535Z,11.96
2022-10-05T03:38:07.132Z,11.97
2022-10-05T03:40:39.554Z,11.98
2022-10-05T03:43:20.618Z,11.97
2022-10-05T03:45:53.234Z,11.93
2022-10-05T03:48:29.902Z,11.85
2022-10-05T03:51:05.202Z,11.95
2022-10-05T03:53:40.360Z,11.88
2022-10-05T03:56:13.943Z,11.96
2022-10-05T03:58:47.039Z,11.92
2022-10-05T04:01:20.493Z,11.87
2022-10-05T04:03:52.796Z,11.94
2022-10-05T04:06:26.567Z,11.95
2022-10-05T04:09:00.247Z,11.92
2022-10-05T04:11:32.862Z,11.79
2022-10-05T04:14:05.921Z,11.76
2022-10-05T04:16:40.242Z,11.85
2022-10-05T04:19:15.316Z,11.82
2022-10-05T04:21:52.073Z,11.73
2022-10-05T04:24:25.445Z,11.84
2022-10-05T04:26:57.342Z,11.82
2022-10-05T04:29:33.676Z,11.91
2022-10-05T04:32:17.546Z,11.83
2022-10-05T04:34:59.226Z,11.86
2022-10-05T04:37:42.088Z,11.91
2022-10-05T04:40:24.109Z,11.89
2022-10-05T04:43:02.810Z,11.89
2022-10-05T04:45:41.865Z,11.89
2022-10-05T04:48:31.401Z,11.95
2022-10-05T04:51:14.610Z,12.02
2022-10-05T04:53:51.152Z,11.93
2022-10-05T04:56:24.897Z,12.05
2022-10-05T04:59:07.620Z,12.07
2022-10-05T05:01:57.139Z,12.12
2022-10-05T05:04:51.886Z,12.08
2022-10-05T05:07:32.311Z,12.14
2022-10-05T05:10:39.563Z,12.20
2022-10-05T05:13:17.946Z,12.22
2022-10-05T05:15:53.660Z,12.19
2022-10-05T05:18:58.331Z,12.13
2022-10-05T05:21:37.959Z,12.17
2022-10-05T05:24:15.928Z,12.17
2022-10-05T05:27:02.257Z,12.22
2022-10-05T05:29:42.847Z,12.22
2022-10-05T05:32:20.731Z,12.26
2022-10-05T05:35:04.639Z,12.28
2022-10-05T05:37:37.659Z,12.25
2022-10-05T05:40:14.322Z,12.27
2022-10-05T05:42:53.331Z,12.28
2022-10-05T05:45:29.665Z,12.27
2022-10-05T05:48:00.490Z,12.30
2022-10-05T05:50:52.045Z,12.35
2022-10-05T05:53:25.259Z,12.22
2022-10-05T05:55:59.196Z,12.31
2022-10-05T05:58:35.069Z,12.31
2022-10-05T06:01:20.297Z,12.37
2022-10-05T06:04:00.614Z,12.38
2022-10-05T06:06:33.098Z,12.39
2022-10-05T06:09:05.142Z,12.42
2022-10-05T06:11:39.460Z,12.44
2022-10-05T06:14:18.504Z,12.47
2022-10-05T06:16:51.717Z,12.53
2022-10-05T06:19:23.283Z,12.62
2022-10-05T06:21:58.633Z,12.63
2022-10-05T06:24:30.907Z,12.67
2022-10-05T06:27:16.771Z,12.71
2022-10-05T06:30:00.231Z,12.72
2022-10-05T06:32:31.345Z,12.75
2022-10-05T06:35:10.708Z,12.81
2022-10-05T06:38:01.692Z,12.84
2022-10-05T06:40:42.801Z,12.88
2022-10-05T06:43:43.186Z,12.93
2022-10-05T06:46:19.391Z,12.94
2022-10-05T06:49:00.106Z,13.05
2022-10-05T06:51:35.115Z,13.12
2022-10-05T06:54:15.135Z,13.16
2022-10-05T06:56:49.571Z,13.22
2022-10-05T06:59:24.771Z,13.20
2022-10-05T07:02:02.945Z,13.36
2022-10-05T07:04:41.951Z,13.38
2022-10-05T07:07:18.170Z,13.47
2022-10-05T07:10:01.141Z,13.52
2022-10-05T07:12:44.667Z,13.52
2022-10-05T07:15:35.162Z,13.61
2022-10-05T07:18:20.347Z,13.67
2022-10-05T07:20:54.222Z,13.68
2022-10-05T07:23:33.855Z,13.70
2022-10-05T07:26:07.562Z,13.73
2022-10-05T07:28:45.401Z,13.74
2022-10-05T07:31:23.903Z,13.80
2022-10-05T07:34:05.035Z,13.78
2022-10-05T07:36:58.419Z,13.92
2022-10-05T07:39:59.019Z,13.93
2022-10-05T07:42:36.672Z,13.91
2022-10-05T07:45:18.955Z,13.97
2022-10-05T07:47:54.253Z,13.99
2022-10-05T07:50:28.191Z,13.66
2022-10-05T07:53:02.291Z,13.75
2022-10-05T07:55:36.760Z,14.00
2022-10-05T07:58:09.362Z,14.06
2022-10-05T08:01:00.555Z,14.05
2022-10-05T08:03:38.595Z,14.07
2022-10-05T08:06:12.748Z,14.06
2022-10-05T08:08:50.095Z,14.12
2022-10-05T08:11:23.012Z,14.08
2022-10-05T08:13:55.577Z,14.15
2022-10-05T08:16:28.267Z,14.14
2022-10-05T08:19:00.796Z,14.05
2022-10-05T08:21:35.242Z,14.23
2022-10-05T08:24:10.815Z,14.26
2022-10-05T08:26:50.624Z,14.29
2022-10-05T08:29:25.167Z,14.32
2022-10-05T08:31:58.370Z,14.37
2022-10-05T08:34:31.014Z,14.39
2022-10-05T08:37:05.034Z,14.39
2022-10-05T08:39:38.351Z,14.22
2022-10-05T08:42:38.147Z,14.38
2022-10-05T08:45:44.182Z,14.50
2022-10-05T08:48:51.939Z,14.52
2022-10-05T08:51:45.200Z,14.62
2022-10-05T08:54:40.364Z,14.66
2022-10-05T08:57:31.442Z,14.71
2022-10-05T09:00:12.681Z,14.75
2022-10-05T09:03:00.350Z,14.71
2022-10-05T09:05:51.793Z,14.83
2022-10-05T09:08:40.781Z,14.65
2022-10-05T09:11:19.280Z,14.69
2022-10-05T09:14:08.478Z,14.93
2022-10-05T09:16:49.713Z,14.75
2022-10-05T09:19:52.566Z,15.11
2022-10-05T09:22:35.957Z,14.89
2022-10-05T09:25:17.172Z,15.15
2022-10-05T09:27:53.741Z,15.16
2022-10-05T09:30:31.881Z,15.15
2022-10-05T09:33:43.582Z,15.31
2022-10-05T09:36:32.376Z,15.34
2022-10-05T09:39:44.486Z,15.40
2022-10-05T09:42:36.457Z,15.39
2022-10-05T09:45:48.629Z,15.31
2022-10-05T09:48:49.500Z,15.53
2022-10-05T09:51:51.132Z,15.60
2022-10-05T09:55:03.078Z,15.70
2022-10-05T09:58:03.524Z,15.78
2022-10-05T10:00:55.640Z,15.83
2022-10-05T10:04:30.352Z,15.87
2022-10-05T10:07:26.253Z,15.87
2022-10-05T10:10:29.269Z,15.90
2022-10-05T10:13:17.909Z,15.56
2022-10-05T10:16:13.121Z,15.84
2022-10-05T10:19:07.721Z,15.95
2022-10-05T10:21:55.360Z,15.98
2022-10-05T10:24:43.840Z,15.95
2022-10-05T10:27:31.476Z,16.12
2022-10-05T10:30:33.181Z,15.94
2022-10-05T10:33:37.219Z,16.10
2022-10-05T10:36:14.536Z,16.09
2022-10-05T10:38:54.191Z,16.11
2022-10-05T10:41:54.261Z,16.19
2022-10-05T10:44:55.266Z,16.33
2022-10-05T10:47:39.902Z,16.28
2022-10-05T10:50:33.633Z,16.42
2022-10-05T10:53:33.698Z,16.41
2022-10-05T10:56:22.659Z,16.44
2022-10-05T10:59:17.419Z,16.44
2022-10-05T11:02:01.841Z,16.31
2022-10-05T11:04:47.808Z,16.61
2022-10-05T11:07:37.122Z,16.55
2022-10-05T11:10:41.815Z,16.63
2022-10-05T11:13:32.381Z,16.49
2022-10-05T11:16:27.210Z,16.63
2022-10-05T11:19:12.604Z,16.79
2022-10-05T11:21:48.485Z,16.43
2022-10-05T11:24:43.722Z,16.70
2022-10-05T11:27:50.208Z,16.91
2022-10-05T11:30:57.020Z,16.75
2022-10-05T11:33:59.002Z,16.92
2022-10-05T11:36:53.385Z,17.13
2022-10-05T11:39:38.830Z,17.06
2022-10-05T11:42:50.066Z,16.94
2022-10-05T11:45:23.949Z,17.21
2022-10-05T11:48:21.376Z,17.31
2022-10-05T11:51:09.617Z,17.35
2022-10-05T11:53:40.993Z,17.60
2022-10-05T11:56:20.154Z,17.92
2022-10-05T11:58:54.444Z,17.71
2022-10-05T12:01:27.992Z,17.85
2022-10-05T12:04:04.146Z,18.03
2022-10-05T12:06:51.453Z,18.16
2022-10-05T12:09:34.612Z,18.46
2022-10-05T12:12:14.348Z,18.44
2022-10-05T12:14:51.393Z,18.68
2022-10-05T12:17:30.923Z,18.29
2022-10-05T12:20:03.149Z,18.88
2022-10-05T12:22:38.494Z,19.00
2022-10-05T12:25:21.664Z,18.78
2022-10-05T12:27:53.295Z,19.01
2022-10-05T12:30:29.628Z,19.00
2022-10-05T12:33:07.626Z,19.14
2022-10-05T12:35:48.188Z,19.27
2022-10-05T12:38:28.510Z,19.54
2022-10-05T12:41:05.745Z,19.69
2022-10-05T12:43:44.785Z,19.71
2022-10-05T12:46:23.367Z,19.49
2022-10-05T12:49:20.408Z,19.77
2022-10-05T12:51:56.817Z,19.95
2022-10-05T12:54:34.934Z,19.96
2022-10-05T12:57:12.464Z,20.23
2022-10-05T12:59:43.416Z,20.22
2022-10-05T13:02:26.251Z,20.20
2022-10-05T13:05:02.408Z,20.08
2022-10-05T13:07:52.732Z,20.11
2022-10-05T13:10:32.216Z,20.16
2022-10-05T13:13:14.115Z,20.64
2022-10-05T13:15:50.993Z,20.65
2022-10-05T13:18:28.314Z,20.50
2022-10-05T13:21:05.453Z,20.61
2022-10-05T13:23:44.877Z,20.26
2022-10-05T13:26:18.838Z,21.10
2022-10-05T13:28:53.862Z,21.25
2022-10-05T13:31:26.746Z,21.33
2022-10-05T13:34:04.223Z,21.42
2022-10-05T13:36:43.533Z,20.83
2022-10-05T13:39:22.566Z,20.95
2022-10-05T13:41:58.062Z,21.44
2022-10-05T13:44:35.507Z,21.67
2022-10-05T13:47:09.396Z,21.54
2022-10-05T13:49:44.293Z,21.41
2022-10-05T13:52:24.875Z,21.57
2022-10-05T13:54:59.813Z,21.26
2022-10-05T13:57:53.794Z,21.28
2022-10-05T14:00:26.250Z,21.11
2022-10-05T14:02:56.853Z,21.42
2022-10-05T14:05:27.098Z,20.90
2022-10-05T14:07:58.422Z,21.20
2022-10-05T14:10:38.219Z,21.31
2022-10-05T14:13:23.455Z,21.21
2022-10-05T14:16:04.374Z,21.32
2022-10-05T14:18:33.999Z,21.11
2022-10-05T14:21:18.157Z,20.89
2022-10-05T14:23:46.499Z,20.79
2022-10-05T14:26:32.427Z,20.65
2022-10-05T14:29:04.164Z,20.82
2022-10-05T14:31:36.078Z,20.76
2022-10-05T14:34:33.425Z,20.97
2022-10-05T14:37:04.738Z,20.86
2022-10-05T14:39:35.492Z,20.84
2022-10-05T14:42:14.661Z,20.60
2022-10-05T14:44:43.709Z,20.48
2022-10-05T14:47:22.571Z,20.49
2022-10-05T14:50:10.529Z,20.47
2022-10-05T14:52:41.090Z,20.32
2022-10-05T14:55:47.867Z,20.19
2022-10-05T14:58:41.454Z,20.02
2022-10-05T15:01:17.504Z,20.11
2022-10-05T15:03:55.110Z,19.92
2022-10-05T15:06:29.307Z,20.01
2022-10-05T15:09:32.213Z,20.02
2022-10-05T15:12:03.220Z,19.87
2022-10-05T15:14:33.526Z,19.63
2022-10-05T15:17:05.512Z,19.71
2022-10-05T15:19:49.623Z,19.30
2022-10-05T15:22:29.014Z,19.41
2022-10-05T15:25:03.902Z,19.43
2022-10-05T15:27:43.551Z,19.27
2022-10-05T15:30:13.838Z,19.28
2022-10-05T15:32:58.626Z,19.31
2022-10-05T15:35:45.604Z,19.18
2022-10-05T15:38:21.071Z,19.08
2022-10-05T15:41:07.471Z,19.06
2022-10-05T15:43:47.139Z,18.95
2022-10-05T15:46:21.990Z,19.08
2022-10-05T15:49:01.822Z,18.89
2022-10-05T15:51:41.545Z,18.89
2022-10-05T15:54:37.165Z,18.91
2022-10-05T15:57:12.160Z,18.77
2022-10-05T15:59:50.820Z,18.74
2022-10-05T16:02:22.385Z,18.84
2022-10-05T16:05:04.940Z,18.62
2022-10-05T16:07:57.837Z,18.67
2022-10-05T16:10:27.323Z,18.53
2022-10-05T16:13:11.738Z,18.61
2022-10-05T16:15:43.844Z,18.68
2022-10-05T16:18:32.536Z,18.63
2022-10-05T16:21:14.607Z,18.66
2022-10-05T16:23:57.011Z,18.62
2022-10-05T16:26:36.434Z,18.37
2022-10-05T16:29:10.387Z,18.56
2022-10-05T16:31:46.493Z,18.58
2022-10-05T16:34:28.281Z,18.48
2022-10-05T16:37:04.474Z,18.44
2022-10-05T16:39:56.855Z,18.37
2022-10-05T16:42:43.058Z,18.30
2022-10-05T16:45:27.890Z,18.32
2022-10-05T16:48:06.051Z,18.24
2022-10-05T16:50:44.075Z,18.35
2022-10-05T16:53:19.374Z,18.55
2022-10-05T16:55:50.787Z,18.61
2022-10-05T16:58:25.571Z,18.68
2022-10-05T17:01:09.389Z,18.63
2022-10-05T17:03:50.346Z,18.68
2022-10-05T17:06:41.236Z,18.64
2022-10-05T17:09:43.637Z,18.68
2022-10-05T17:12:27.609Z,18.56
2022-10-05T17:15:10.192Z,18.52
2022-10-05T17:17:52.893Z,18.52
2022-10-05T17:20:41.618Z,18.41
2022-10-05T17:23:29.169Z,18.44
2022-10-05T17:26:09.310Z,18.33
2022-10-05T17:28:40.740Z,18.19
2022-10-05T17:31:16.197Z,18.04
2022-10-05T17:34:28.190Z,17.99
2022-10-05T17:36:59.756Z,17.92
2022-10-05T17:39:47.546Z,17.76
2022-10-05T17:42:57.901Z,17.72
2022-10-05T17:45:58.008Z,17.65
2022-10-05T17:48:45.119Z,17.54
2022-10-05T17:52:13.895Z,17.50
2022-10-05T17:55:30.459Z,17.40
2022-10-05T17:58:19.873Z,17.37
2022-10-05T18:01:06.895Z,17.37
2022-10-05T18:03:40.909Z,17.34
2022-10-05T18:06:37.369Z,17.27
2022-10-05T18:09:21.740Z,17.27
2022-10-05T18:12:25.989Z,17.23
2022-10-05T18:14:58.500Z,17.24
2022-10-05T18:17:42.155Z,17.26
2022-10-05T18:20:35.120Z,17.19
2022-10-05T18:23:30.092Z,17.20
2022-10-05T18:26:06.157Z,17.18
2022-10-05T18:28:48.961Z,17.17
2022-10-05T18:31:29.127Z,17.21
2022-10-05T18:34:14.195Z,17.03
2022-10-05T18:36:59.705Z,17.09
2022-10-05T18:39:48.785Z,17.03
2022-10-05T18:42:27.308Z,17.01
2022-10-05T18:44:59.161Z,17.05
2022-10-05T18:47:40.892Z,17.13
2022-10-05T18:50:26.105Z,17.12
2022-10-05T18:53:03.534Z,17.12
2022-10-05T18:55:34.496Z,17.15
2022-10-05T18:58:18.141Z,17.15
2022-10-05T19:01:01.749Z,17.05
2022-10-05T19:03:42.021Z,17.11
2022-10-05T19:06:18.011Z,17.12
2022-10-05T19:08:54.737Z,17.10
2022-10-05T19:11:30.471Z,17.10
2022-10-05T19:14:06.514Z,17.17
2022-10-05T19:16:49.744Z,17.15
2022-10-05T19:19:37.510Z,17.07
2022-10-05T19:22:14.319Z,17.03
2022-10-05T19:24:49.303Z,17.07
2022-10-05T19:27:27.283Z,17.01
2022-10-05T19:30:12.114Z,17.00
2022-10-05T19:32:50.450Z,17.05
2022-10-05T19:35:32.204Z,17.05
2022-10-05T19:38:15.666Z,17.13
2022-10-05T19:40:56.459Z,17.18
2022-10-05T19:43:45.618Z,17.18
2022-10-05T19:46:25.023Z,17.16
2022-10-05T19:48:54.386Z,17.22
2022-10-05T19:51:30.934Z,17.26
2022-10-05T19:54:01.824Z,17.30
2022-10-05T19:56:33.578Z,17.37
2022-10-05T19:59:14.141Z,17.30
2022-10-05T20:01:50.574Z,17.31
2022-10-05T20:04:33.035Z,17.36
2022-10-05T20:07:02.760Z,17.30
2022-10-05T20:09:49.395Z,17.42
2022-10-05T20:12:17.359Z,17.40
2022-10-05T20:15:05.819Z,17.42
2022-10-05T20:17:50.846Z,17.43
2022-10-05T20:20:30.893Z,17.37
2022-10-05T20:23:21.746Z,17.39
2022-10-05T20:26:09.741Z,17.38
2022-10-05T20:28:38.283Z,17.40
2022-10-05T20:31:08.398Z,17.42
2022-10-05T20:33:36.085Z,17.40
2022-10-05T20:36:04.464Z,17.41
2022-10-05T20:38:40.037Z,17.38
2022-10-05T20:41:08.748Z,17.47
2022-10-05T20:43:39.004Z,17.36
2022-10-05T20:46:07.572Z,17.44
2022-10-05T20:48:36.024Z,17.41
2022-10-05T20:51:04.173Z,17.40
2022-10-05T20:53:33.546Z,17.41
2022-10-05T20:56:02.359Z,17.39
2022-10-05T20:58:30.607Z,17.40
2022-10-05T21:01:18.967Z,17.41
2022-10-05T21:03:47.495Z,17.44
2022-10-05T21:06:15.231Z,17.40
2022-10-05T21:08:46.719Z,17.43
2022-10-05T21:11:14.769Z,17.37
2022-10-05T21:13:45.561Z,17.38
2022-10-05T21:16:13.989Z,17.40
2022-10-05T21:18:41.980Z,17.40
2022-10-05T21:21:09.674Z,17.37
2022-10-05T21:23:37.483Z,17.40
2022-10-05T21:26:07.314Z,17.38
2022-10-05T21:28:35.383Z,17.32
2022-10-05T21:31:03.062Z,17.38
2022-10-05T21:33:31.157Z,17.35
2022-10-05T21:35:59.099Z,17.42
2022-10-05T21:38:27.222Z,17.40
2022-10-05T21:40:55.363Z,17.41
2022-10-05T21:43:25.195Z,17.48
2022-10-05T21:45:55.131Z,17.48
2022-10-05T21:48:23.771Z,17.29
2022-10-05T21:50:53.600Z,17.44
2022-10-05T21:53:23.798Z,17.37
2022-10-05T21:55:52.596Z,17.36
2022-10-05T21:58:22.671Z,17.21
2022-10-05T22:00:51.742Z,16.69
2022-10-05T22:03:19.511Z,16.69
2022-10-05T22:05:47.191Z,16.44
2022-10-05T22:08:21.825Z,16.30
2022-10-05T22:10:49.871Z,16.41
2022-10-05T22:13:17.671Z,16.34
2022-10-05T22:15:45.289Z,16.39
2022-10-05T22:18:18.139Z,16.10
2022-10-05T22:20:46.512Z,16.08
2022-10-05T22:23:14.208Z,15.98
2022-10-05T22:25:42.197Z,15.67
2022-10-05T22:28:13.115Z,15.72
2022-10-05T22:30:41.526Z,15.44
2022-10-05T22:33:09.424Z,15.61
2022-10-05T22:35:38.456Z,15.72
2022-10-05T22:38:06.586Z,15.67
2022-10-05T22:40:34.263Z,15.54
2022-10-05T22:43:01.933Z,15.65
2022-10-05T22:45:32.548Z,15.67
2022-10-05T22:48:00.565Z,15.67
2022-10-05T22:50:28.308Z,15.72
2022-10-05T22:52:57.346Z,15.61
2022-10-05T22:55:25.541Z,15.68
2022-10-05T22:57:53.386Z,15.64
2022-10-05T23:00:27.617Z,15.57
2022-10-05T23:02:55.463Z,15.53
2022-10-05T23:05:23.183Z,15.59
2022-10-05T23:07:50.777Z,15.51
2022-10-05T23:10:20.032Z,15.57
2022-10-05T23:13:00.348Z,15.15
2022-10-05T23:15:28.595Z,15.42
2022-10-05T23:17:57.353Z,15.33
2022-10-05T23:20:25.974Z,15.14
2022-10-05T23:22:53.759Z,14.87
2022-10-05T23:25:23.190Z,14.52
2022-10-05T23:27:50.813Z,14.34
2022-10-05T23:30:18.645Z,14.23
2022-10-05T23:32:46.871Z,14.13
2022-10-05T23:35:14.618Z,14.05
2022-10-05T23:37:44.268Z,14.12
2022-10-05T23:40:13.738Z,14.06
2022-10-05T23:42:43.107Z,14.05
2022-10-05T23:45:12.832Z,13.96
2022-10-05T23:47:40.986Z,13.68
2022-10-05T23:50:10.247Z,13.63
2022-10-05T23:52:37.907Z,13.74
2022-10-05T23:55:06.995Z,13.63
2022-10-05T23:57:34.695Z,13.62
